UKLU/UDJ METAR and TAF weather

Enter ICAO airport designator
Station Type Date Time Source
UKLU METAR 2018/12/11 20:00 UTC NOAA

UKLU 112000Z 12003MPS 090V170 5000 -SN OVC008 01/00 Q1015 NOSIG


Station Type Date Time Source
UKLU Decoded METAR 2018/12/11 20:00 UTC NOAA

Uzhhorod, Ukraine (UKLU) 48-38-05N 022-15-53E
Dec 11, 2018 - 03:00 PM EST / 2018.12.11 2000 UTC
Wind: from the ESE (120 degrees) at 7 MPH (6 KT) (direction variable):0
Visibility: 3 mile(s):0
Sky conditions: overcast
Weather: light snow
Temperature: 33 F (1 C)
Windchill: 26 F (-3 C):1
Dew Point: 32 F (0 C)
Relative Humidity: 93%
Pressure (altimeter): 29.97 in. Hg (1015 hPa)
ob: UKLU 112000Z 12003MPS 090V170 5000 -SN OVC008 01/00 Q1015 NOSIG
cycle: 20

Station Type Date Time Source
UKLU TAF 2018/08/04 18:39 UTC NOAA

TAF TAF UKLU 041831Z 0418/0506 CNL


Example: see airport list